Tincup, Colorado
Current Conditions -  °F | °C
As of 8:34 AM on Saturday 22 Nov 2014 (Local Time) from K7BM Reporting Station
Clear Clear  
Wind Chill: 22°   Ceiling: Unl
Heat Index: 32°   Visibility: 10mi
Dew Point: 14°   Wind: 14mph
Humidity: 47%   Direction: 310°NW
Pressure: 30.01"   Gusts: 30mph
Location:  38.7752°N, 106.586°W
Report Text: K7BM 221534Z AUTO 31012G26KT 270V350 10SM CLR 00/M10 A3001 RMK AO2
Loading
Personal Weather Stations






























Interactive Weather Map New forecast layout! Learn more

10-Day Weather Forecast

Advertisements
Track Severe Weather on mobile